sensor_id;sensor_type;location;lat;lon;timestamp;P1;durP1;ratioP1;P2;durP2;ratioP2
37455;SDS011;23316;50.718;7.328;2024-02-26T00:00:49;3.08;;;1.00;;
37455;SDS011;23316;50.718;7.328;2024-02-26T00:03:16;6.18;;;1.00;;
37455;SDS011;23316;50.718;7.328;2024-02-26T00:05:43;2.45;;;1.20;;
37455;SDS011;23316;50.718;7.328;2024-02-26T00:08:10;1.30;;;0.98;;
37455;SDS011;23316;50.718;7.328;2024-02-26T00:10:37;1.63;;;0.90;;
37455;SDS011;23316;50.718;7.328;2024-02-26T00:13:05;0.98;;;0.88;;
37455;SDS011;23316;50.718;7.328;2024-02-26T00:15:32;2.28;;;1.27;;
37455;SDS011;23316;50.718;7.328;2024-02-26T00:18:02;2.35;;;0.90;;
37455;SDS011;23316;50.718;7.328;2024-02-26T00:20:29;1.65;;;1.00;;
37455;SDS011;23316;50.718;7.328;2024-02-26T00:22:58;1.52;;;0.80;;
37455;SDS011;23316;50.718;7.328;2024-02-26T00:25:25;1.50;;;0.90;;
37455;SDS011;23316;50.718;7.328;2024-02-26T00:27:52;5.28;;;0.68;;
37455;SDS011;23316;50.718;7.328;2024-02-26T00:30:20;1.77;;;0.80;;
37455;SDS011;23316;50.718;7.328;2024-02-26T00:32:48;2.08;;;0.80;;
37455;SDS011;23316;50.718;7.328;2024-02-26T00:35:17;1.27;;;0.77;;
37455;SDS011;23316;50.718;7.328;2024-02-26T00:37:46;1.83;;;0.98;;
37455;SDS011;23316;50.718;7.328;2024-02-26T00:40:13;1.38;;;0.70;;
37455;SDS011;23316;50.718;7.328;2024-02-26T00:42:41;2.58;;;0.65;;
37455;SDS011;23316;50.718;7.328;2024-02-26T00:45:11;1.30;;;0.80;;
37455;SDS011;23316;50.718;7.328;2024-02-26T00:47:38;1.80;;;0.63;;
37455;SDS011;23316;50.718;7.328;2024-02-26T00:50:07;1.48;;;0.77;;
37455;SDS011;23316;50.718;7.328;2024-02-26T00:52:37;1.65;;;0.80;;
37455;SDS011;23316;50.718;7.328;2024-02-26T00:55:05;1.88;;;0.68;;
37455;SDS011;23316;50.718;7.328;2024-02-26T00:57:35;0.90;;;0.70;;
37455;SDS011;23316;50.718;7.328;2024-02-26T01:00:03;1.33;;;0.63;;
37455;SDS011;23316;50.718;7.328;2024-02-26T01:02:34;0.50;;;0.50;;
37455;SDS011;23316;50.718;7.328;2024-02-26T01:05:01;1.42;;;0.60;;
37455;SDS011;23316;50.718;7.328;2024-02-26T01:07:29;1.58;;;0.77;;
37455;SDS011;23316;50.718;7.328;2024-02-26T01:10:02;2.15;;;0.93;;
37455;SDS011;23316;50.718;7.328;2024-02-26T01:12:31;3.88;;;0.70;;
37455;SDS011;23316;50.718;7.328;2024-02-26T01:14:59;0.47;;;0.40;;
37455;SDS011;23316;50.718;7.328;2024-02-26T03:34:58;2.00;;;0.70;;
37455;SDS011;23316;50.718;7.328;2024-02-26T03:37:26;1.10;;;0.50;;
37455;SDS011;23316;50.718;7.328;2024-02-26T03:39:53;0.82;;;0.68;;
37455;SDS011;23316;50.718;7.328;2024-02-26T03:42:22;0.85;;;0.40;;
37455;SDS011;23316;50.718;7.328;2024-02-26T03:44:49;3.45;;;0.50;;
37455;SDS011;23316;50.718;7.328;2024-02-26T03:47:17;1.25;;;0.60;;
37455;SDS011;23316;50.718;7.328;2024-02-26T03:49:44;2.53;;;0.77;;
37455;SDS011;23316;50.718;7.328;2024-02-26T03:52:12;1.67;;;0.52;;
37455;SDS011;23316;50.718;7.328;2024-02-26T03:54:40;2.38;;;0.50;;
37455;SDS011;23316;50.718;7.328;2024-02-26T03:57:07;0.47;;;0.45;;
37455;SDS011;23316;50.718;7.328;2024-02-26T03:59:34;1.00;;;0.60;;
37455;SDS011;23316;50.718;7.328;2024-02-26T04:02:02;2.20;;;0.60;;
37455;SDS011;23316;50.718;7.328;2024-02-26T04:04:29;0.85;;;0.65;;
37455;SDS011;23316;50.718;7.328;2024-02-26T04:07:00;1.55;;;0.40;;
37455;SDS011;23316;50.718;7.328;2024-02-26T04:09:28;0.52;;;0.40;;
37455;SDS011;23316;50.718;7.328;2024-02-26T04:11:57;0.50;;;0.30;;
37455;SDS011;23316;50.718;7.328;2024-02-26T04:14:24;1.10;;;0.47;;
37455;SDS011;23316;50.718;7.328;2024-02-26T04:16:52;0.90;;;0.50;;
37455;SDS011;23316;50.718;7.328;2024-02-26T04:19:20;1.00;;;0.50;;
37455;SDS011;23316;50.718;7.328;2024-02-26T04:21:47;0.30;;;0.30;;
37455;SDS011;23316;50.718;7.328;2024-02-26T04:24:14;0.50;;;0.40;;
37455;SDS011;23316;50.718;7.328;2024-02-26T04:26:43;0.93;;;0.50;;
37455;SDS011;23316;50.718;7.328;2024-02-26T04:29:10;1.00;;;0.45;;
37455;SDS011;23316;50.718;7.328;2024-02-26T04:31:37;0.88;;;0.52;;
37455;SDS011;23316;50.718;7.328;2024-02-26T04:34:05;1.15;;;0.50;;
37455;SDS011;23316;50.718;7.328;2024-02-26T04:36:32;1.08;;;0.50;;
37455;SDS011;23316;50.718;7.328;2024-02-26T04:38:59;0.47;;;0.47;;
37455;SDS011;23316;50.718;7.328;2024-02-26T04:41:26;0.40;;;0.40;;
37455;SDS011;23316;50.718;7.328;2024-02-26T04:43:55;0.88;;;0.40;;
37455;SDS011;23316;50.718;7.328;2024-02-26T04:46:22;1.20;;;0.50;;
37455;SDS011;23316;50.718;7.328;2024-02-26T04:48:49;2.30;;;0.45;;
37455;SDS011;23316;50.718;7.328;2024-02-26T04:51:17;0.85;;;0.50;;
37455;SDS011;23316;50.718;7.328;2024-02-26T04:53:44;0.80;;;0.60;;
37455;SDS011;23316;50.718;7.328;2024-02-26T04:56:11;1.80;;;0.55;;
37455;SDS011;23316;50.718;7.328;2024-02-26T04:58:38;1.63;;;0.68;;
37455;SDS011;23316;50.718;7.328;2024-02-26T05:01:07;0.80;;;0.45;;
37455;SDS011;23316;50.718;7.328;2024-02-26T05:03:36;7.18;;;0.98;;
37455;SDS011;23316;50.718;7.328;2024-02-26T05:06:03;4.07;;;0.85;;
37455;SDS011;23316;50.718;7.328;2024-02-26T05:08:31;2.20;;;0.73;;
37455;SDS011;23316;50.718;7.328;2024-02-26T05:11:01;2.53;;;0.93;;
37455;SDS011;23316;50.718;7.328;2024-02-26T05:13:29;2.65;;;0.82;;
37455;SDS011;23316;50.718;7.328;2024-02-26T05:15:56;2.22;;;0.65;;
37455;SDS011;23316;50.718;7.328;2024-02-26T05:18:25;1.27;;;0.65;;
37455;SDS011;23316;50.718;7.328;2024-02-26T05:20:52;3.17;;;0.60;;
37455;SDS011;23316;50.718;7.328;2024-02-26T05:23:20;0.90;;;0.65;;
37455;SDS011;23316;50.718;7.328;2024-02-26T05:25:48;5.05;;;0.82;;
37455;SDS011;23316;50.718;7.328;2024-02-26T05:28:15;4.68;;;0.60;;
37455;SDS011;23316;50.718;7.328;2024-02-26T05:30:46;10.40;;;1.00;;
37455;SDS011;23316;50.718;7.328;2024-02-26T05:33:13;2.17;;;0.80;;
37455;SDS011;23316;50.718;7.328;2024-02-26T05:35:42;2.50;;;0.77;;
37455;SDS011;23316;50.718;7.328;2024-02-26T05:38:10;2.97;;;0.80;;
37455;SDS011;23316;50.718;7.328;2024-02-26T05:40:37;6.55;;;0.70;;
37455;SDS011;23316;50.718;7.328;2024-02-26T05:43:04;5.18;;;1.00;;
37455;SDS011;23316;50.718;7.328;2024-02-26T05:45:31;4.93;;;0.77;;
37455;SDS011;23316;50.718;7.328;2024-02-26T05:47:59;28.40;;;15.77;;
37455;SDS011;23316;50.718;7.328;2024-02-26T05:50:26;83.32;;;41.22;;
37455;SDS011;23316;50.718;7.328;2024-02-26T05:52:55;54.63;;;36.00;;
37455;SDS011;23316;50.718;7.328;2024-02-26T05:55:22;38.72;;;25.73;;
37455;SDS011;23316;50.718;7.328;2024-02-26T05:57:50;27.58;;;18.65;;
37455;SDS011;23316;50.718;7.328;2024-02-26T06:00:17;23.65;;;15.35;;
37455;SDS011;23316;50.718;7.328;2024-02-26T06:02:45;21.65;;;12.73;;
37455;SDS011;23316;50.718;7.328;2024-02-26T06:05:12;23.33;;;12.57;;
37455;SDS011;23316;50.718;7.328;2024-02-26T06:07:39;34.67;;;13.27;;
37455;SDS011;23316;50.718;7.328;2024-02-26T06:10:08;18.75;;;10.85;;
37455;SDS011;23316;50.718;7.328;2024-02-26T06:12:36;17.33;;;9.23;;
37455;SDS011;23316;50.718;7.328;2024-02-26T06:15:03;17.85;;;9.75;;
37455;SDS011;23316;50.718;7.328;2024-02-26T06:17:31;14.60;;;9.20;;
37455;SDS011;23316;50.718;7.328;2024-02-26T06:19:59;10.30;;;7.63;;
37455;SDS011;23316;50.718;7.328;2024-02-26T06:22:26;11.20;;;7.68;;
37455;SDS011;23316;50.718;7.328;2024-02-26T06:24:54;11.35;;;7.20;;
37455;SDS011;23316;50.718;7.328;2024-02-26T06:27:22;12.18;;;7.20;;
37455;SDS011;23316;50.718;7.328;2024-02-26T06:29:50;11.85;;;7.78;;
37455;SDS011;23316;50.718;7.328;2024-02-26T06:32:17;153.75;;;82.50;;
37455;SDS011;23316;50.718;7.328;2024-02-26T06:34:44;201.82;;;119.70;;
37455;SDS011;23316;50.718;7.328;2024-02-26T06:37:11;135.30;;;79.05;;
37455;SDS011;23316;50.718;7.328;2024-02-26T06:39:38;88.78;;;49.00;;
37455;SDS011;23316;50.718;7.328;2024-02-26T06:42:06;63.22;;;37.63;;
37455;SDS011;23316;50.718;7.328;2024-02-26T06:44:35;48.22;;;29.60;;
37455;SDS011;23316;50.718;7.328;2024-02-26T06:47:02;58.50;;;30.55;;
37455;SDS011;23316;50.718;7.328;2024-02-26T06:49:29;50.30;;;27.80;;
37455;SDS011;23316;50.718;7.328;2024-02-26T06:51:57;48.30;;;25.95;;
37455;SDS011;23316;50.718;7.328;2024-02-26T06:54:24;39.45;;;24.13;;
37455;SDS011;23316;50.718;7.328;2024-02-26T06:56:51;44.42;;;23.98;;
37455;SDS011;23316;50.718;7.328;2024-02-26T06:59:18;35.50;;;21.83;;
37455;SDS011;23316;50.718;7.328;2024-02-26T07:01:47;34.83;;;21.83;;
37455;SDS011;23316;50.718;7.328;2024-02-26T07:04:15;34.60;;;20.77;;
37455;SDS011;23316;50.718;7.328;2024-02-26T07:06:42;29.70;;;17.75;;
37455;SDS011;23316;50.718;7.328;2024-02-26T07:09:09;24.73;;;15.00;;
37455;SDS011;23316;50.718;7.328;2024-02-26T07:11:37;26.13;;;16.10;;
37455;SDS011;23316;50.718;7.328;2024-02-26T07:14:07;30.30;;;15.75;;
37455;SDS011;23316;50.718;7.328;2024-02-26T07:16:34;29.08;;;15.50;;
37455;SDS011;23316;50.718;7.328;2024-02-26T07:19:03;27.45;;;15.82;;
37455;SDS011;23316;50.718;7.328;2024-02-26T07:21:30;65.95;;;36.40;;
37455;SDS011;23316;50.718;7.328;2024-02-26T07:23:58;53.53;;;33.40;;
37455;SDS011;23316;50.718;7.328;2024-02-26T07:26:25;46.72;;;21.63;;
37455;SDS011;23316;50.718;7.328;2024-02-26T07:28:52;34.38;;;20.20;;
37455;SDS011;23316;50.718;7.328;2024-02-26T07:31:19;36.50;;;19.67;;
37455;SDS011;23316;50.718;7.328;2024-02-26T07:33:46;32.05;;;17.75;;
37455;SDS011;23316;50.718;7.328;2024-02-26T07:36:15;37.22;;;18.17;;
37455;SDS011;23316;50.718;7.328;2024-02-26T07:38:42;34.13;;;17.40;;
37455;SDS011;23316;50.718;7.328;2024-02-26T07:41:10;27.80;;;16.13;;
37455;SDS011;23316;50.718;7.328;2024-02-26T07:43:38;23.60;;;15.02;;
37455;SDS011;23316;50.718;7.328;2024-02-26T07:46:06;28.85;;;15.10;;
37455;SDS011;23316;50.718;7.328;2024-02-26T07:48:33;25.42;;;14.15;;
37455;SDS011;23316;50.718;7.328;2024-02-26T07:51:00;29.02;;;14.43;;
37455;SDS011;23316;50.718;7.328;2024-02-26T07:53:30;22.65;;;13.40;;
37455;SDS011;23316;50.718;7.328;2024-02-26T07:55:57;19.23;;;12.27;;
37455;SDS011;23316;50.718;7.328;2024-02-26T07:58:24;17.38;;;11.48;;
37455;SDS011;23316;50.718;7.328;2024-02-26T08:00:51;16.63;;;9.57;;
37455;SDS011;23316;50.718;7.328;2024-02-26T08:03:19;16.30;;;9.95;;
37455;SDS011;23316;50.718;7.328;2024-02-26T08:05:46;15.93;;;9.40;;
37455;SDS011;23316;50.718;7.328;2024-02-26T08:08:13;19.35;;;9.65;;
37455;SDS011;23316;50.718;7.328;2024-02-26T08:10:42;14.48;;;7.97;;
37455;SDS011;23316;50.718;7.328;2024-02-26T08:13:10;13.05;;;7.60;;
37455;SDS011;23316;50.718;7.328;2024-02-26T08:15:38;17.92;;;7.72;;
37455;SDS011;23316;50.718;7.328;2024-02-26T08:18:05;15.43;;;7.43;;
37455;SDS011;23316;50.718;7.328;2024-02-26T08:20:33;12.68;;;7.15;;
37455;SDS011;23316;50.718;7.328;2024-02-26T08:23:00;9.75;;;5.93;;
37455;SDS011;23316;50.718;7.328;2024-02-26T08:25:27;15.45;;;7.20;;
37455;SDS011;23316;50.718;7.328;2024-02-26T08:27:56;12.95;;;7.35;;
37455;SDS011;23316;50.718;7.328;2024-02-26T08:30:23;11.18;;;5.78;;
37455;SDS011;23316;50.718;7.328;2024-02-26T08:32:51;10.43;;;5.45;;
37455;SDS011;23316;50.718;7.328;2024-02-26T08:35:19;10.02;;;5.50;;
37455;SDS011;23316;50.718;7.328;2024-02-26T08:37:46;15.57;;;5.45;;
37455;SDS011;23316;50.718;7.328;2024-02-26T08:40:14;7.97;;;5.43;;
37455;SDS011;23316;50.718;7.328;2024-02-26T08:42:42;7.10;;;4.45;;
37455;SDS011;23316;50.718;7.328;2024-02-26T08:45:10;7.88;;;4.50;;
37455;SDS011;23316;50.718;7.328;2024-02-26T08:47:40;8.15;;;4.20;;
37455;SDS011;23316;50.718;7.328;2024-02-26T08:50:07;7.85;;;3.90;;
37455;SDS011;23316;50.718;7.328;2024-02-26T08:52:37;5.38;;;3.60;;
37455;SDS011;23316;50.718;7.328;2024-02-26T08:55:06;8.90;;;3.47;;
37455;SDS011;23316;50.718;7.328;2024-02-26T08:57:34;9.88;;;3.75;;
37455;SDS011;23316;50.718;7.328;2024-02-26T09:00:01;8.55;;;4.15;;
37455;SDS011;23316;50.718;7.328;2024-02-26T09:02:30;10.05;;;4.05;;
37455;SDS011;23316;50.718;7.328;2024-02-26T09:04:57;9.98;;;4.05;;
37455;SDS011;23316;50.718;7.328;2024-02-26T09:07:24;5.28;;;3.30;;
37455;SDS011;23316;50.718;7.328;2024-02-26T09:09:52;156.18;;;88.68;;
37455;SDS011;23316;50.718;7.328;2024-02-26T09:12:19;137.68;;;79.70;;
37455;SDS011;23316;50.718;7.328;2024-02-26T09:14:46;95.85;;;58.33;;
37455;SDS011;23316;50.718;7.328;2024-02-26T09:17:13;81.93;;;47.95;;
37455;SDS011;23316;50.718;7.328;2024-02-26T09:19:42;65.68;;;38.85;;
37455;SDS011;23316;50.718;7.328;2024-02-26T09:22:09;52.50;;;31.75;;
37455;SDS011;23316;50.718;7.328;2024-02-26T09:24:37;45.42;;;26.50;;
37455;SDS011;23316;50.718;7.328;2024-02-26T09:27:04;43.95;;;25.52;;
37455;SDS011;23316;50.718;7.328;2024-02-26T09:29:31;39.08;;;24.20;;
37455;SDS011;23316;50.718;7.328;2024-02-26T09:31:59;37.13;;;23.20;;
37455;SDS011;23316;50.718;7.328;2024-02-26T09:34:27;34.67;;;21.75;;
37455;SDS011;23316;50.718;7.328;2024-02-26T09:36:55;32.20;;;20.58;;
37455;SDS011;23316;50.718;7.328;2024-02-26T09:39:23;27.90;;;18.35;;
37455;SDS011;23316;50.718;7.328;2024-02-26T09:41:50;29.55;;;17.10;;
37455;SDS011;23316;50.718;7.328;2024-02-26T09:44:18;57.22;;;19.10;;
37455;SDS011;23316;50.718;7.328;2024-02-26T09:46:47;36.03;;;17.02;;
37455;SDS011;23316;50.718;7.328;2024-02-26T09:49:15;29.05;;;15.70;;
37455;SDS011;23316;50.718;7.328;2024-02-26T09:51:43;39.75;;;16.88;;
37455;SDS011;23316;50.718;7.328;2024-02-26T09:54:11;30.70;;;14.68;;
37455;SDS011;23316;50.718;7.328;2024-02-26T09:56:41;25.45;;;14.27;;
37455;SDS011;23316;50.718;7.328;2024-02-26T09:59:10;24.95;;;14.68;;
37455;SDS011;23316;50.718;7.328;2024-02-26T10:01:40;24.55;;;13.27;;
37455;SDS011;23316;50.718;7.328;2024-02-26T10:04:09;22.92;;;13.13;;
37455;SDS011;23316;50.718;7.328;2024-02-26T10:06:37;18.70;;;11.75;;
37455;SDS011;23316;50.718;7.328;2024-02-26T10:09:05;23.48;;;13.77;;
37455;SDS011;23316;50.718;7.328;2024-02-26T10:11:37;19.38;;;11.85;;
37455;SDS011;23316;50.718;7.328;2024-02-26T10:41:47;14.25;;;7.97;;
37455;SDS011;23316;50.718;7.328;2024-02-26T10:44:15;16.40;;;7.97;;
37455;SDS011;23316;50.718;7.328;2024-02-26T10:46:42;13.05;;;7.30;;
37455;SDS011;23316;50.718;7.328;2024-02-26T10:49:13;17.30;;;7.57;;
37455;SDS011;23316;50.718;7.328;2024-02-26T10:51:44;21.63;;;7.40;;
37455;SDS011;23316;50.718;7.328;2024-02-26T10:54:12;20.67;;;7.18;;
37455;SDS011;23316;50.718;7.328;2024-02-26T10:56:42;53.33;;;29.88;;
37455;SDS011;23316;50.718;7.328;2024-02-26T10:59:13;91.28;;;56.38;;
37455;SDS011;23316;50.718;7.328;2024-02-26T11:01:46;71.43;;;44.53;;
37455;SDS011;23316;50.718;7.328;2024-02-26T11:04:15;40.13;;;25.27;;
37455;SDS011;23316;50.718;7.328;2024-02-26T11:06:43;33.42;;;19.05;;
37455;SDS011;23316;50.718;7.328;2024-02-26T11:09:21;30.40;;;18.20;;
37455;SDS011;23316;50.718;7.328;2024-02-26T11:11:49;32.47;;;16.27;;
37455;SDS011;23316;50.718;7.328;2024-02-26T11:14:21;32.17;;;16.40;;
37455;SDS011;23316;50.718;7.328;2024-02-26T11:16:51;33.42;;;15.63;;
37455;SDS011;23316;50.718;7.328;2024-02-26T11:19:20;30.15;;;14.32;;
37455;SDS011;23316;50.718;7.328;2024-02-26T11:21:49;49.90;;;22.63;;
37455;SDS011;23316;50.718;7.328;2024-02-26T11:24:18;35.42;;;16.10;;
37455;SDS011;23316;50.718;7.328;2024-02-26T11:26:49;26.25;;;13.90;;
37455;SDS011;23316;50.718;7.328;2024-02-26T11:29:26;41.72;;;13.30;;
37455;SDS011;23316;50.718;7.328;2024-02-26T11:31:58;24.63;;;12.60;;
37455;SDS011;23316;50.718;7.328;2024-02-26T11:34:26;38.50;;;12.60;;
37455;SDS011;23316;50.718;7.328;2024-02-26T11:36:55;19.77;;;10.45;;
37455;SDS011;23316;50.718;7.328;2024-02-26T11:39:26;22.38;;;10.13;;
37455;SDS011;23316;50.718;7.328;2024-02-26T11:41:54;25.15;;;10.32;;
37455;SDS011;23316;50.718;7.328;2024-02-26T11:44:29;20.77;;;9.77;;
37455;SDS011;23316;50.718;7.328;2024-02-26T11:46:56;18.55;;;9.88;;
37455;SDS011;23316;50.718;7.328;2024-02-26T11:49:31;20.70;;;9.40;;
37455;SDS011;23316;50.718;7.328;2024-02-26T11:52:00;18.63;;;9.32;;
37455;SDS011;23316;50.718;7.328;2024-02-26T11:54:45;15.18;;;7.60;;
37455;SDS011;23316;50.718;7.328;2024-02-26T11:57:22;13.45;;;6.88;;
37455;SDS011;23316;50.718;7.328;2024-02-26T11:59:51;14.45;;;7.90;;
37455;SDS011;23316;50.718;7.328;2024-02-26T12:05:06;13.77;;;6.97;;
37455;SDS011;23316;50.718;7.328;2024-02-26T12:07:37;13.02;;;6.07;;
37455;SDS011;23316;50.718;7.328;2024-02-26T12:10:27;10.82;;;6.57;;
37455;SDS011;23316;50.718;7.328;2024-02-26T12:13:00;13.05;;;6.53;;
37455;SDS011;23316;50.718;7.328;2024-02-26T12:15:31;10.98;;;6.28;;
37455;SDS011;23316;50.718;7.328;2024-02-26T12:18:04;10.55;;;5.95;;
37455;SDS011;23316;50.718;7.328;2024-02-26T12:20:33;11.25;;;6.15;;
37455;SDS011;23316;50.718;7.328;2024-02-26T12:23:00;9.05;;;5.50;;
37455;SDS011;23316;50.718;7.328;2024-02-26T12:25:29;15.43;;;5.78;;
37455;SDS011;23316;50.718;7.328;2024-02-26T12:27:57;11.05;;;6.10;;
37455;SDS011;23316;50.718;7.328;2024-02-26T12:30:24;9.82;;;5.63;;
37455;SDS011;23316;50.718;7.328;2024-02-26T12:32:53;9.23;;;5.53;;
37455;SDS011;23316;50.718;7.328;2024-02-26T12:35:22;9.77;;;5.20;;
37455;SDS011;23316;50.718;7.328;2024-02-26T12:37:51;8.85;;;5.03;;
37455;SDS011;23316;50.718;7.328;2024-02-26T12:40:19;9.55;;;4.88;;
37455;SDS011;23316;50.718;7.328;2024-02-26T12:42:47;10.82;;;5.28;;
37455;SDS011;23316;50.718;7.328;2024-02-26T12:45:14;6.80;;;4.38;;
37455;SDS011;23316;50.718;7.328;2024-02-26T12:47:42;9.13;;;4.88;;
37455;SDS011;23316;50.718;7.328;2024-02-26T12:50:12;10.18;;;5.75;;
37455;SDS011;23316;50.718;7.328;2024-02-26T12:52:40;16.55;;;6.95;;
37455;SDS011;23316;50.718;7.328;2024-02-26T12:55:10;19.33;;;8.57;;
37455;SDS011;23316;50.718;7.328;2024-02-26T12:57:41;17.02;;;8.45;;
37455;SDS011;23316;50.718;7.328;2024-02-26T13:00:11;13.35;;;6.80;;
37455;SDS011;23316;50.718;7.328;2024-02-26T13:02:41;16.42;;;7.82;;
37455;SDS011;23316;50.718;7.328;2024-02-26T13:05:10;16.38;;;7.80;;
37455;SDS011;23316;50.718;7.328;2024-02-26T13:07:40;15.60;;;7.63;;
37455;SDS011;23316;50.718;7.328;2024-02-26T13:10:08;18.42;;;7.88;;
37455;SDS011;23316;50.718;7.328;2024-02-26T13:12:37;13.23;;;6.93;;
37455;SDS011;23316;50.718;7.328;2024-02-26T13:15:05;13.30;;;6.93;;
37455;SDS011;23316;50.718;7.328;2024-02-26T13:17:33;10.77;;;6.20;;
37455;SDS011;23316;50.718;7.328;2024-02-26T13:20:00;11.23;;;6.00;;
37455;SDS011;23316;50.718;7.328;2024-02-26T13:22:30;12.75;;;6.40;;
37455;SDS011;23316;50.718;7.328;2024-02-26T13:24:59;10.10;;;5.88;;
37455;SDS011;23316;50.718;7.328;2024-02-26T13:27:28;8.85;;;5.15;;
37455;SDS011;23316;50.718;7.328;2024-02-26T13:30:02;10.27;;;5.68;;
37455;SDS011;23316;50.718;7.328;2024-02-26T13:32:32;12.48;;;6.25;;
37455;SDS011;23316;50.718;7.328;2024-02-26T13:35:06;10.48;;;5.43;;
37455;SDS011;23316;50.718;7.328;2024-02-26T13:37:35;9.55;;;4.75;;
37455;SDS011;23316;50.718;7.328;2024-02-26T13:40:06;14.13;;;5.00;;
37455;SDS011;23316;50.718;7.328;2024-02-26T13:42:35;31.25;;;5.97;;
37455;SDS011;23316;50.718;7.328;2024-02-26T13:45:03;22.27;;;5.63;;
37455;SDS011;23316;50.718;7.328;2024-02-26T13:47:32;14.90;;;4.55;;
37455;SDS011;23316;50.718;7.328;2024-02-26T13:49:59;21.10;;;4.68;;
37455;SDS011;23316;50.718;7.328;2024-02-26T13:52:27;29.02;;;5.70;;
37455;SDS011;23316;50.718;7.328;2024-02-26T13:54:56;20.45;;;4.57;;
37455;SDS011;23316;50.718;7.328;2024-02-26T13:57:23;18.13;;;5.32;;
37455;SDS011;23316;50.718;7.328;2024-02-26T13:59:51;18.23;;;4.28;;
37455;SDS011;23316;50.718;7.328;2024-02-26T14:02:18;20.40;;;4.43;;
37455;SDS011;23316;50.718;7.328;2024-02-26T14:04:46;15.38;;;4.80;;
37455;SDS011;23316;50.718;7.328;2024-02-26T14:07:13;20.42;;;4.40;;
37455;SDS011;23316;50.718;7.328;2024-02-26T14:09:42;25.17;;;4.10;;
37455;SDS011;23316;50.718;7.328;2024-02-26T14:12:11;18.75;;;4.18;;
37455;SDS011;23316;50.718;7.328;2024-02-26T14:14:38;15.60;;;3.88;;
37455;SDS011;23316;50.718;7.328;2024-02-26T14:17:08;9.30;;;3.72;;
37455;SDS011;23316;50.718;7.328;2024-02-26T14:19:35;9.60;;;3.28;;
37455;SDS011;23316;50.718;7.328;2024-02-26T14:22:04;9.57;;;3.42;;
37455;SDS011;23316;50.718;7.328;2024-02-26T14:24:32;15.85;;;3.90;;
37455;SDS011;23316;50.718;7.328;2024-02-26T14:26:59;12.80;;;3.70;;
37455;SDS011;23316;50.718;7.328;2024-02-26T14:29:28;138.10;;;76.50;;
37455;SDS011;23316;50.718;7.328;2024-02-26T14:31:55;143.48;;;79.45;;
37455;SDS011;23316;50.718;7.328;2024-02-26T14:34:23;89.90;;;46.40;;
37455;SDS011;23316;50.718;7.328;2024-02-26T14:36:51;43.97;;;26.13;;
37455;SDS011;23316;50.718;7.328;2024-02-26T14:39:19;35.33;;;21.83;;
37455;SDS011;23316;50.718;7.328;2024-02-26T14:41:46;39.17;;;21.40;;
37455;SDS011;23316;50.718;7.328;2024-02-26T14:44:13;40.28;;;20.90;;
37455;SDS011;23316;50.718;7.328;2024-02-26T14:46:42;33.25;;;19.25;;
37455;SDS011;23316;50.718;7.328;2024-02-26T14:49:10;35.05;;;18.65;;
37455;SDS011;23316;50.718;7.328;2024-02-26T14:51:37;39.42;;;19.27;;
37455;SDS011;23316;50.718;7.328;2024-02-26T14:54:04;29.80;;;16.15;;
37455;SDS011;23316;50.718;7.328;2024-02-26T14:56:32;25.90;;;16.17;;
37455;SDS011;23316;50.718;7.328;2024-02-26T14:58:59;25.90;;;15.35;;
37455;SDS011;23316;50.718;7.328;2024-02-26T15:01:26;21.67;;;12.95;;
37455;SDS011;23316;50.718;7.328;2024-02-26T15:03:55;21.85;;;13.13;;
37455;SDS011;23316;50.718;7.328;2024-02-26T15:06:22;23.15;;;13.00;;
37455;SDS011;23316;50.718;7.328;2024-02-26T15:08:50;19.13;;;11.38;;
37455;SDS011;23316;50.718;7.328;2024-02-26T15:11:17;18.02;;;10.93;;
37455;SDS011;23316;50.718;7.328;2024-02-26T15:13:44;17.83;;;10.77;;
37455;SDS011;23316;50.718;7.328;2024-02-26T15:16:16;16.73;;;10.68;;
37455;SDS011;23316;50.718;7.328;2024-02-26T15:18:44;16.40;;;10.05;;
37455;SDS011;23316;50.718;7.328;2024-02-26T15:21:13;17.23;;;9.88;;
37455;SDS011;23316;50.718;7.328;2024-02-26T15:23:42;14.90;;;9.02;;
37455;SDS011;23316;50.718;7.328;2024-02-26T15:26:10;11.07;;;7.68;;
37455;SDS011;23316;50.718;7.328;2024-02-26T15:28:37;12.95;;;8.43;;
37455;SDS011;23316;50.718;7.328;2024-02-26T15:31:06;14.90;;;8.13;;
37455;SDS011;23316;50.718;7.328;2024-02-26T15:33:33;45.05;;;24.13;;
37455;SDS011;23316;50.718;7.328;2024-02-26T15:36:00;89.97;;;49.88;;
37455;SDS011;23316;50.718;7.328;2024-02-26T15:38:29;67.35;;;39.15;;
37455;SDS011;23316;50.718;7.328;2024-02-26T15:40:56;47.15;;;27.23;;
37455;SDS011;23316;50.718;7.328;2024-02-26T15:43:24;33.28;;;20.52;;
37455;SDS011;23316;50.718;7.328;2024-02-26T15:45:51;32.28;;;19.27;;
37455;SDS011;23316;50.718;7.328;2024-02-26T15:48:18;27.83;;;16.75;;
37455;SDS011;23316;50.718;7.328;2024-02-26T15:50:46;26.35;;;15.63;;
37455;SDS011;23316;50.718;7.328;2024-02-26T15:53:13;25.38;;;15.07;;
37455;SDS011;23316;50.718;7.328;2024-02-26T15:55:42;21.95;;;13.80;;
37455;SDS011;23316;50.718;7.328;2024-02-26T15:58:09;21.33;;;12.70;;
37455;SDS011;23316;50.718;7.328;2024-02-26T16:00:38;17.23;;;11.60;;
37455;SDS011;23316;50.718;7.328;2024-02-26T16:03:07;17.80;;;10.13;;
37455;SDS011;23316;50.718;7.328;2024-02-26T16:05:35;29.45;;;11.13;;
37455;SDS011;23316;50.718;7.328;2024-02-26T16:08:04;23.48;;;10.88;;
37455;SDS011;23316;50.718;7.328;2024-02-26T16:10:34;20.15;;;10.63;;
37455;SDS011;23316;50.718;7.328;2024-02-26T16:13:02;18.83;;;10.50;;
37455;SDS011;23316;50.718;7.328;2024-02-26T16:15:30;19.08;;;9.88;;
37455;SDS011;23316;50.718;7.328;2024-02-26T16:18:00;22.73;;;10.15;;
37455;SDS011;23316;50.718;7.328;2024-02-26T16:20:27;18.80;;;9.05;;
37455;SDS011;23316;50.718;7.328;2024-02-26T16:22:55;17.38;;;8.73;;
37455;SDS011;23316;50.718;7.328;2024-02-26T16:25:24;17.55;;;7.68;;
37455;SDS011;23316;50.718;7.328;2024-02-26T16:27:52;11.32;;;6.72;;
37455;SDS011;23316;50.718;7.328;2024-02-26T16:30:21;70.72;;;40.63;;
37455;SDS011;23316;50.718;7.328;2024-02-26T16:32:48;79.82;;;48.22;;
37455;SDS011;23316;50.718;7.328;2024-02-26T16:35:16;72.38;;;43.20;;
37455;SDS011;23316;50.718;7.328;2024-02-26T16:37:43;48.22;;;28.52;;
37455;SDS011;23316;50.718;7.328;2024-02-26T16:40:12;33.67;;;19.33;;
37455;SDS011;23316;50.718;7.328;2024-02-26T16:42:41;27.15;;;15.82;;
37455;SDS011;23316;50.718;7.328;2024-02-26T16:45:08;24.75;;;14.82;;
37455;SDS011;23316;50.718;7.328;2024-02-26T16:47:39;23.90;;;13.70;;
37455;SDS011;23316;50.718;7.328;2024-02-26T16:50:07;22.10;;;13.32;;
37455;SDS011;23316;50.718;7.328;2024-02-26T16:52:36;20.40;;;13.27;;
37455;SDS011;23316;50.718;7.328;2024-02-26T16:55:03;22.08;;;12.80;;
37455;SDS011;23316;50.718;7.328;2024-02-26T16:57:31;20.17;;;11.60;;
37455;SDS011;23316;50.718;7.328;2024-02-26T16:59:58;15.98;;;10.48;;
37455;SDS011;23316;50.718;7.328;2024-02-26T17:02:26;14.45;;;9.23;;
37455;SDS011;23316;50.718;7.328;2024-02-26T17:04:54;14.80;;;9.70;;
37455;SDS011;23316;50.718;7.328;2024-02-26T17:07:22;13.70;;;8.52;;
37455;SDS011;23316;50.718;7.328;2024-02-26T17:09:49;12.60;;;8.88;;
37455;SDS011;23316;50.718;7.328;2024-02-26T17:12:17;15.30;;;8.77;;
37455;SDS011;23316;50.718;7.328;2024-02-26T17:14:46;20.13;;;8.98;;
37455;SDS011;23316;50.718;7.328;2024-02-26T17:17:16;16.02;;;7.90;;
37455;SDS011;23316;50.718;7.328;2024-02-26T17:19:43;13.15;;;7.30;;
37455;SDS011;23316;50.718;7.328;2024-02-26T17:22:12;10.63;;;6.63;;
37455;SDS011;23316;50.718;7.328;2024-02-26T17:24:39;11.90;;;6.80;;
37455;SDS011;23316;50.718;7.328;2024-02-26T17:27:06;9.73;;;6.20;;